Time;durP1;ratioP1;P1;durP2;ratioP2;P2;SDS_P1;SDS_P2;PMS_P1;PMS_P2;Temp;Humidity;BMP_temperature;BMP_pressure;BME280_temperature;BME280_humidity;BME280_pressure;Samples;Min_cycle;Max_cycle;Signal;HPM_P1;HPM_P2
2023/03/30 00:00:25;;;;;;;6.72;2.65;;;;;;;13.09;77.35;100536.44;4885392;29;20523;-88
2023/03/30 00:02:52;;;;;;;8.50;2.83;;;;;;;13.16;76.11;100521.72;4897535;29;20044;-89
2023/03/30 00:05:22;;;;;;;9.32;2.53;;;;;;;13.20;76.16;100524.94;4893259;29;20047;-88
2023/03/30 00:07:56;;;;;;;7.45;2.65;;;;;;;13.20;76.59;100528.41;4895247;29;20033;-88
2023/03/30 00:10:31;;;;;;;5.10;2.65;;;;;;;13.14;76.57;100515.75;4899712;29;20046;-88
2023/03/30 00:13:06;;;;;;;6.50;2.65;;;;;;;13.14;76.65;100506.00;4949512;29;20136;-88
2023/03/30 00:15:41;;;;;;;5.13;2.30;;;;;;;13.05;76.57;100504.19;4929219;29;20827;-88
2023/03/30 00:18:09;;;;;;;8.15;2.63;;;;;;;12.93;76.88;100505.31;4927570;29;20382;-88
2023/03/30 00:20:53;;;;;;;7.45;2.40;;;;;;;12.88;77.81;100502.25;4929777;29;20157;-88
2023/03/30 00:23:21;;;;;;;6.40;2.42;;;;;;;12.82;77.79;100508.06;4910051;29;20071;-89
2023/03/30 00:25:52;;;;;;;4.85;2.45;;;;;;;12.80;77.65;100494.97;4894008;29;20051;-88
2023/03/30 00:28:25;;;;;;;6.00;2.53;;;;;;;12.80;77.61;100499.41;4894726;29;20032;-88
2023/03/30 00:30:53;;;;;;;11.38;2.67;;;;;;;12.79;77.77;100503.03;4891287;29;20484;-88
2023/03/30 00:33:21;;;;;;;9.82;2.80;;;;;;;12.77;77.62;100500.53;4883703;29;20047;-88
2023/03/30 00:35:59;;;;;;;7.20;2.60;;;;;;;12.80;77.72;100488.88;4887117;29;20045;-88
2023/03/30 00:38:26;;;;;;;5.20;2.45;;;;;;;12.76;77.49;100487.47;4875847;29;20037;-88
2023/03/30 00:41:06;;;;;;;6.20;2.50;;;;;;;12.75;77.87;100481.34;4894610;29;20548;-88
2023/03/30 00:44:02;;;;;;;7.85;2.42;;;;;;;12.75;78.49;100481.34;4909201;29;20119;-88
2023/03/30 00:46:35;;;;;;;6.53;2.25;;;;;;;12.68;77.73;100487.31;4909461;29;20062;-89
2023/03/30 00:49:11;;;;;;;5.18;2.50;;;;;;;12.60;77.67;100466.88;4887520;29;20040;-88
2023/03/30 00:51:42;;;;;;;5.22;2.00;;;;;;;12.52;77.89;100459.66;4866830;29;20043;-89
2023/03/30 00:54:14;;;;;;;5.30;2.22;;;;;;;12.48;78.43;100458.25;4900757;29;20036;-88
2023/03/30 00:56:43;;;;;;;5.25;2.35;;;;;;;12.41;78.90;100451.84;4929881;29;20047;-88
2023/03/30 00:59:17;;;;;;;7.20;2.30;;;;;;;12.42;79.00;100434.22;4942601;29;20075;-88
2023/03/30 01:01:48;;;;;;;10.23;2.63;;;;;;;12.38;79.48;100446.81;4913664;29;20068;-88
2023/03/30 01:04:17;;;;;;;9.18;2.42;;;;;;;12.38;79.25;100451.25;4928913;29;20039;-88
2023/03/30 01:06:51;;;;;;;4.63;2.30;;;;;;;12.38;79.39;100446.00;4933596;29;20469;-88
2023/03/30 01:09:19;;;;;;;7.50;2.45;;;;;;;12.37;79.52;100434.59;4921028;29;20042;-88
2023/03/30 01:11:59;;;;;;;4.50;2.10;;;;;;;12.38;79.49;100441.53;4917934;29;20039;-88
2023/03/30 01:14:28;;;;;;;8.88;2.40;;;;;;;12.33;79.80;100449.03;4938284;29;20051;-88
2023/03/30 01:17:41;;;;;;;8.73;2.13;;;;;;;12.33;80.25;100441.13;4921604;29;20065;-89
2023/03/30 01:20:33;;;;;;;8.00;2.20;;;;;;;12.28;80.17;100453.88;4903635;29;20052;-89
2023/03/30 01:23:36;;;;;;;6.20;2.20;;;;;;;12.27;80.33;100460.13;4925673;29;20252;-88
2023/03/30 01:26:39;;;;;;;6.20;2.17;;;;;;;12.22;81.38;100451.78;4916193;29;20035;-88
2023/03/30 01:30:01;;;;;;;9.23;2.85;;;;;;;12.16;81.84;100449.69;4939604;29;20053;-88
2023/03/30 01:33:23;;;;;;;4.70;2.45;;;;;;;12.22;81.38;100446.50;4898385;29;20171;-88
2023/03/30 01:36:10;;;;;;;6.32;2.88;;;;;;;12.33;80.85;100449.03;4894045;29;20597;-89
2023/03/30 01:39:13;;;;;;;6.75;2.38;;;;;;;12.46;80.66;100443.53;4912852;29;20119;-89
2023/03/30 01:42:18;;;;;;;4.28;2.05;;;;;;;12.62;79.94;100443.00;4913233;29;20123;-88
2023/03/30 01:44:55;;;;;;;6.45;2.00;;;;;;;12.71;79.32;100428.97;4907430;29;20204;-88
2023/03/30 01:47:32;;;;;;;7.38;2.17;;;;;;;12.78;78.69;100422.16;4919301;29;20381;-88
2023/03/30 01:50:19;;;;;;;7.47;2.00;;;;;;;12.82;78.47;100415.66;4933332;29;20123;-88
2023/03/30 01:53:12;;;;;;;7.75;2.10;;;;;;;12.77;79.14;100417.84;4933476;29;20051;-88
2023/03/30 01:55:54;;;;;;;5.40;1.98;;;;;;;12.78;78.87;100430.09;4920007;29;20115;-89
2023/03/30 01:58:34;;;;;;;4.07;2.20;;;;;;;12.83;78.73;100454.28;4921815;29;20028;-89
2023/03/30 02:01:07;;;;;;;5.18;2.13;;;;;;;12.83;77.99;100427.91;4913451;29;20044;-89
2023/03/30 02:03:42;;;;;;;5.85;2.00;;;;;;;12.91;77.58;100433.31;4900840;29;20429;-88
2023/03/30 02:06:37;;;;;;;5.93;1.88;;;;;;;12.97;77.90;100438.03;4929073;29;20134;-88
2023/03/30 02:09:14;;;;;;;5.68;1.83;;;;;;;12.94;77.69;100445.41;4928788;29;20044;-88
2023/03/30 02:11:50;;;;;;;5.10;2.20;;;;;;;12.89;77.48;100443.19;4921309;29;20039;-88
2023/03/30 02:14:26;;;;;;;5.43;2.30;;;;;;;12.88;78.07;100443.31;4916152;29;20043;-88
2023/03/30 02:17:10;;;;;;;6.60;2.10;;;;;;;12.88;78.48;100441.50;4915244;29;20044;-88
2023/03/30 02:19:36;;;;;;;6.03;1.90;;;;;;;12.84;78.11;100427.75;4910302;29;20387;-88
2023/03/30 02:22:15;;;;;;;6.75;2.10;;;;;;;12.81;78.61;100427.19;4876384;29;20044;-89
2023/03/30 02:24:46;;;;;;;8.77;2.30;;;;;;;12.80;78.45;100428.13;4878804;29;20051;-88
2023/03/30 02:27:14;;;;;;;6.13;2.20;;;;;;;12.79;78.72;100423.84;4894553;29;20046;-88
2023/03/30 02:29:47;;;;;;;5.95;2.10;;;;;;;12.79;78.77;100437.03;4884545;29;20492;-88
2023/03/30 02:32:39;;;;;;;6.82;2.10;;;;;;;12.80;78.72;100438.69;4894729;29;20103;-88
2023/03/30 02:35:44;;;;;;;5.20;2.20;;;;;;;12.83;79.00;100430.53;4911430;29;20048;-88
2023/03/30 02:38:54;;;;;;;6.25;2.08;;;;;;;12.86;79.14;100423.16;4892878;29;20041;-88
2023/03/30 02:41:44;;;;;;;7.00;2.30;;;;;;;12.89;78.15;100424.69;4820165;29;20195;-89
2023/03/30 02:44:37;;;;;;;7.45;2.20;;;;;;;12.91;78.69;100432.47;4827345;29;20095;-88
2023/03/30 02:47:40;;;;;;;7.85;2.05;;;;;;;12.89;79.30;100432.63;4836626;29;20081;-88
2023/03/30 02:50:39;;;;;;;3.53;2.15;;;;;;;12.90;78.63;100431.66;4827342;29;20057;-88
2023/03/30 02:53:50;;;;;;;9.50;2.20;;;;;;;12.95;78.53;100432.06;4833025;29;20125;-88
2023/03/30 02:56:48;;;;;;;7.63;1.85;;;;;;;12.96;78.62;100423.16;4845683;29;20037;-88
2023/03/30 02:59:29;;;;;;;8.95;2.45;;;;;;;12.98;77.93;100421.22;4855383;29;20606;-88
2023/03/30 03:02:18;;;;;;;5.57;2.15;;;;;;;13.01;77.91;100417.47;4860226;29;20522;-88
2023/03/30 03:04:52;;;;;;;4.68;1.95;;;;;;;13.05;77.59;100411.75;4914600;29;20484;-88
2023/03/30 03:07:31;;;;;;;4.43;2.10;;;;;;;13.10;77.09;100409.53;4904624;29;20036;-88
2023/03/30 03:09:56;;;;;;;5.38;1.77;;;;;;;13.09;77.46;100405.22;4895860;29;20410;-88
2023/03/30 03:12:22;;;;;;;4.28;1.80;;;;;;;13.10;77.41;100406.88;4878282;29;20044;-88
2023/03/30 03:14:56;;;;;;;4.03;1.80;;;;;;;13.07;77.95;100406.34;4905263;29;20493;-88
2023/03/30 03:17:45;;;;;;;7.75;2.15;;;;;;;13.09;77.45;100415.78;4896392;29;20036;-88
2023/03/30 03:20:35;;;;;;;5.38;2.20;;;;;;;13.10;77.54;100417.44;4941061;28;20055;-88
2023/03/30 03:23:02;;;;;;;5.32;1.80;;;;;;;13.11;77.57;100413.00;4932417;29;20118;-89
2023/03/30 03:25:30;;;;;;;4.80;1.52;;;;;;;13.14;77.06;100410.06;4913507;29;20090;-88
2023/03/30 03:27:55;;;;;;;8.90;1.88;;;;;;;13.14;76.92;100402.97;4896887;29;20035;-88
2023/03/30 03:30:24;;;;;;;5.88;1.98;;;;;;;13.07;77.40;100401.88;4919866;29;20039;-89
2023/03/30 03:32:53;;;;;;;4.30;1.95;;;;;;;13.10;77.26;100416.63;4913495;29;20064;-88
2023/03/30 03:35:18;;;;;;;4.30;1.98;;;;;;;13.09;77.23;100410.50;4905113;29;20036;-88
2023/03/30 03:37:47;;;;;;;5.13;1.90;;;;;;;13.08;77.04;100403.56;4915121;29;20034;-89
2023/03/30 03:40:22;;;;;;;6.00;2.20;;;;;;;13.10;76.67;100406.03;4933086;29;20040;-89
2023/03/30 03:42:53;;;;;;;8.40;2.40;;;;;;;13.11;76.67;100397.16;4902815;29;20123;-88
2023/03/30 03:45:19;;;;;;;7.47;2.30;;;;;;;13.13;76.46;100403.97;4925405;29;20067;-88
2023/03/30 03:47:51;;;;;;;5.25;2.17;;;;;;;13.12;76.33;100410.22;4916275;29;20031;-88
2023/03/30 03:50:18;;;;;;;6.15;2.03;;;;;;;13.15;75.83;100402.00;4901260;29;20051;-88
2023/03/30 03:52:49;;;;;;;6.70;2.10;;;;;;;13.17;75.69;100402.72;4914316;29;20035;-88
2023/03/30 03:55:18;;;;;;;6.05;1.98;;;;;;;13.18;75.39;100398.28;4915802;29;20052;-88
2023/03/30 03:57:43;;;;;;;6.05;2.17;;;;;;;13.18;75.48;100395.63;4869903;29;20486;-89
2023/03/30 04:00:18;;;;;;;7.78;2.00;;;;;;;13.12;76.17;100396.19;4856623;29;20258;-88
2023/03/30 04:02:47;;;;;;;6.32;2.05;;;;;;;13.16;75.26;100403.69;4873073;29;20045;-88
2023/03/30 04:05:18;;;;;;;5.43;1.90;;;;;;;13.15;75.26;100394.09;4873625;29;20041;-89
2023/03/30 04:07:52;;;;;;;5.43;1.92;;;;;;;13.17;75.13;100389.53;4872014;29;20062;-89
2023/03/30 04:10:24;;;;;;;4.53;1.83;;;;;;;13.13;75.98;100385.47;4869175;29;20092;-89
2023/03/30 04:12:59;;;;;;;7.82;2.08;;;;;;;13.08;76.58;100392.16;4836299;29;20445;-88
2023/03/30 04:15:31;;;;;;;4.72;1.73;;;;;;;13.05;77.09;100387.16;4839288;29;20185;-89
2023/03/30 04:18:00;;;;;;;5.57;1.90;;;;;;;12.98;77.00;100378.97;4865671;29;20057;-89
2023/03/30 04:20:28;;;;;;;6.35;2.42;;;;;;;12.92;77.75;100368.97;4872178;29;20048;-90
2023/03/30 04:22:56;;;;;;;3.97;1.77;;;;;;;12.92;77.74;100374.25;4891834;29;20132;-88
2023/03/30 04:25:24;;;;;;;6.25;2.05;;;;;;;12.89;78.18;100377.16;4871202;29;20055;-88
2023/03/30 04:28:03;;;;;;;8.88;2.38;;;;;;;12.86;78.08;100370.38;4890176;29;20036;-89
2023/03/30 04:30:35;;;;;;;7.93;2.00;;;;;;;12.84;78.30;100368.84;4927759;29;20043;-88
2023/03/30 04:33:03;;;;;;;6.88;2.10;;;;;;;12.82;78.74;100368.16;4920816;29;20051;-89
2023/03/30 04:35:35;;;;;;;5.35;2.38;;;;;;;12.77;79.00;100362.41;4932270;29;20094;-89
2023/03/30 04:38:05;;;;;;;6.53;2.30;;;;;;;12.76;79.08;100364.22;4945469;28;20028;-88
2023/03/30 04:40:33;;;;;;;6.57;2.03;;;;;;;12.68;79.33;100369.38;4930996;29;20475;-89
2023/03/30 04:43:02;;;;;;;6.45;2.25;;;;;;;12.64;79.52;100353.97;4921114;29;20051;-88
2023/03/30 04:45:34;;;;;;;6.57;2.10;;;;;;;12.54;79.63;100356.59;4914105;29;20126;-89
2023/03/30 04:48:00;;;;;;;5.95;2.00;;;;;;;12.51;80.32;100352.44;4931298;29;20099;-89
2023/03/30 04:50:29;;;;;;;6.68;1.95;;;;;;;12.49;80.32;100354.38;4906897;29;20045;-89
2023/03/30 04:53:00;;;;;;;7.13;2.10;;;;;;;12.48;80.03;100358.00;4942836;29;20094;-89
2023/03/30 04:55:26;;;;;;;8.70;2.00;;;;;;;12.42;80.21;100358.53;4924802;29;20055;-88
2023/03/30 04:57:51;;;;;;;5.93;2.33;;;;;;;12.41;80.15;100361.31;4929913;29;20035;-89
2023/03/30 05:00:29;;;;;;;6.10;1.92;;;;;;;12.40;80.21;100362.25;4915652;29;20405;-89
2023/03/30 05:03:06;;;;;;;3.97;1.95;;;;;;;12.39;80.86;100364.06;4924310;29;20047;-89
2023/03/30 05:05:38;;;;;;;5.07;2.30;;;;;;;12.32;82.94;100368.22;4931933;29;20083;-90
2023/03/30 05:08:07;;;;;;;7.72;2.33;;;;;;;12.24;86.01;100397.91;4924987;29;20035;-90
2023/03/30 05:11:01;;;;;;;8.95;2.30;;;;;;;12.18;88.59;100403.75;4926381;29;20115;-90
2023/03/30 05:13:33;;;;;;;7.13;2.83;;;;;;;12.09;92.16;100414.28;4900731;29;20557;-89
2023/03/30 05:15:58;;;;;;;8.70;3.05;;;;;;;11.94;94.52;100403.22;4912077;29;20371;-89
2023/03/30 05:18:23;;;;;;;17.88;3.10;;;;;;;11.88;96.58;100412.50;4894828;29;20048;-90
2023/03/30 05:21:01;;;;;;;7.55;2.90;;;;;;;11.83;98.15;100425.25;4914195;29;20139;-90
2023/03/30 05:23:26;;;;;;;7.28;3.30;;;;;;;11.69;99.38;100416.84;4948521;29;20117;-87
2023/03/30 05:25:58;;;;;;;8.15;3.17;;;;;;;11.64;100.00;100422.50;4937656;29;20560;-90
2023/03/30 05:28:58;;;;;;;;;;;;;;;;;;;;;
2023/03/30 05:31:27;;;;;;;6.32;3.33;;;;;;;11.50;100.00;100434.19;4930423;29;20044;-89
2023/03/30 05:34:35;;;;;;;10.55;3.95;;;;;;;11.49;100.00;100436.97;4921311;29;20043;-88
2023/03/30 05:37:09;;;;;;;9.10;3.40;;;;;;;11.43;100.00;100432.22;4912091;29;20122;-87
2023/03/30 05:39:35;;;;;;;8.10;3.20;;;;;;;11.35;100.00;100432.03;4890407;29;20032;-87
2023/03/30 05:42:13;;;;;;;7.90;3.20;;;;;;;11.30;100.00;100438.50;4904524;29;20048;-87
2023/03/30 05:44:39;;;;;;;9.35;3.35;;;;;;;11.20;100.00;100442.84;4906097;29;20044;-89
2023/03/30 05:47:05;;;;;;;7.88;3.80;;;;;;;11.15;100.00;100428.41;4910206;29;20048;-88
2023/03/30 05:52:44;;;;;;;10.00;3.50;;;;;;;11.04;100.00;100424.03;4895964;29;20457;-87
2023/03/30 05:55:27;;;;;;;13.02;3.35;;;;;;;11.02;100.00;100425.97;4894548;29;20044;-86
2023/03/30 05:57:58;;;;;;;;;;;;;;;11.10;100.00;100449.84;4894777;29;20043;-87
2023/03/30 06:00:27;;;;;;;10.93;3.67;;;;;;;10.95;100.00;100451.13;4905729;29;20014;-88
2023/03/30 06:02:59;;;;;;;9.68;3.50;;;;;;;10.87;100.00;100446.50;4930662;29;20508;-87
2023/03/30 06:05:32;;;;;;;10.70;3.95;;;;;;;10.83;100.00;100449.50;4932867;29;20036;-86
2023/03/30 06:08:10;;;;;;;12.35;4.25;;;;;;;10.79;100.00;100454.16;4912085;29;20040;-86
2023/03/30 06:10:36;;;;;;;11.20;4.40;;;;;;;10.78;100.00;100454.28;4892972;29;20043;-86
2023/03/30 06:13:05;;;;;;;9.32;3.72;;;;;;;10.76;100.00;100453.56;4903904;29;20044;-86
2023/03/30 06:15:33;;;;;;;11.07;4.32;;;;;;;10.75;100.00;100457.16;4912712;29;20060;-86
2023/03/30 06:18:06;;;;;;;12.23;4.13;;;;;;;10.76;100.00;100454.41;4930051;29;20050;-85
2023/03/30 06:20:41;;;;;;;13.23;4.20;;;;;;;10.75;100.00;100458.00;4899017;29;20072;-85
2023/03/30 06:23:09;;;;;;;12.63;4.05;;;;;;;10.80;100.00;100465.50;4914239;29;20051;-85
2023/03/30 06:25:35;;;;;;;16.35;4.45;;;;;;;10.79;100.00;100464.66;4907210;29;20036;-86
2023/03/30 06:28:01;;;;;;;16.00;4.57;;;;;;;10.82;100.00;100464.44;4924960;29;20040;-85
2023/03/30 06:30:26;;;;;;;12.63;3.88;;;;;;;10.84;100.00;100466.97;4916536;29;20495;-86
2023/03/30 06:32:58;;;;;;;13.73;4.00;;;;;;;10.85;100.00;100472.09;4934255;29;20100;-86
2023/03/30 06:35:28;;;;;;;14.43;4.30;;;;;;;10.80;100.00;100476.03;4934019;29;20051;-86
2023/03/30 06:38:08;;;;;;;11.00;3.78;;;;;;;10.76;100.00;100472.81;4933595;29;20046;-86
2023/03/30 06:40:40;;;;;;;13.20;4.28;;;;;;;10.75;100.00;100473.78;4933850;29;20082;-84
2023/03/30 06:43:20;;;;;;;12.10;3.45;;;;;;;10.80;100.00;100470.78;4914979;29;20123;-84
2023/03/30 06:46:01;;;;;;;12.07;3.85;;;;;;;10.85;100.00;100476.53;4908972;29;20158;-84
2023/03/30 06:48:38;;;;;;;11.93;3.78;;;;;;;10.85;100.00;100473.91;4909625;29;20036;-85
2023/03/30 06:54:25;;;;;;;8.30;3.40;;;;;;;10.91;100.00;100473.41;4927080;29;20044;-85
2023/03/30 06:56:51;;;;;;;9.75;3.15;;;;;;;10.94;100.00;100467.88;4915095;29;20036;-84
2023/03/30 06:59:20;;;;;;;10.52;3.28;;;;;;;11.01;100.00;100465.56;4911039;29;20465;-84
2023/03/30 07:01:46;;;;;;;12.07;3.35;;;;;;;11.07;100.00;100472.97;4891725;29;20044;-84
2023/03/30 07:04:11;;;;;;;12.82;3.45;;;;;;;11.15;100.00;100470.53;4893298;29;20552;-83
2023/03/30 07:06:39;;;;;;;11.35;3.38;;;;;;;11.22;100.00;100485.72;4890738;29;20104;-84
2023/03/30 07:09:05;;;;;;;11.48;3.08;;;;;;;11.31;100.00;100470.97;4879098;29;20033;-83
2023/03/30 07:11:39;;;;;;;7.93;2.70;;;;;;;11.43;100.00;100479.63;4885093;29;20379;-83
2023/03/30 07:14:11;;;;;;;11.77;3.13;;;;;;;11.49;100.00;100479.13;4877088;29;20047;-83
2023/03/30 07:16:47;;;;;;;12.70;3.10;;;;;;;11.57;100.00;100488.03;4892738;29;20045;-84
2023/03/30 07:19:30;;;;;;;11.30;3.35;;;;;;;11.68;100.00;100484.53;4877301;29;20045;-84
2023/03/30 07:22:04;;;;;;;10.50;3.75;;;;;;;11.84;100.00;100484.91;4877647;29;20514;-83
2023/03/30 07:24:32;;;;;;;8.55;2.70;;;;;;;12.01;100.00;100496.69;4893706;29;20036;-84
2023/03/30 07:27:04;;;;;;;11.27;2.80;;;;;;;12.30;100.00;100485.41;4892606;29;20037;-82
2023/03/30 07:29:35;;;;;;;12.77;3.08;;;;;;;12.48;100.00;100495.19;4893613;29;20048;-86
2023/03/30 07:32:06;;;;;;;12.55;2.92;;;;;;;12.62;100.00;100496.63;4877086;29;20068;-85
2023/03/30 07:34:58;;;;;;;17.02;3.35;;;;;;;12.61;100.00;100494.13;4880395;29;20072;-87
2023/03/30 07:37:27;;;;;;;15.10;3.47;;;;;;;12.54;100.00;100494.66;4896551;29;20046;-88
2023/03/30 07:42:50;;;;;;;13.70;3.42;;;;;;;12.52;100.00;100504.53;4855287;29;20037;-91
2023/03/30 07:45:19;;;;;;;12.40;2.92;;;;;;;12.48;100.00;100504.91;4855835;29;20129;-89
2023/03/30 07:50:57;;;;;;;13.27;3.17;;;;;;;12.53;100.00;100514.09;4831202;29;20091;-89
2023/03/30 07:53:22;;;;;;;11.77;3.40;;;;;;;12.55;100.00;100506.88;4869959;29;20058;-87
2023/03/30 07:56:10;;;;;;;13.13;3.20;;;;;;;12.66;100.00;100518.31;4896701;29;20036;-87
2023/03/30 07:58:47;;;;;;;10.52;2.97;;;;;;;12.74;99.08;100523.72;4909312;29;20039;-86
2023/03/30 08:01:21;;;;;;;12.27;2.80;;;;;;;12.82;98.81;100523.91;4932551;29;20096;-88
2023/03/30 08:03:50;;;;;;;13.82;3.50;;;;;;;12.82;96.77;100535.31;4928848;29;20055;-87
2023/03/30 08:06:15;;;;;;;11.68;2.88;;;;;;;12.85;96.74;100539.47;4907187;29;20079;-87
2023/03/30 08:08:42;;;;;;;15.43;3.33;;;;;;;12.88;96.22;100533.09;4904451;29;20119;-87
2023/03/30 08:11:11;;;;;;;12.63;3.28;;;;;;;12.95;96.84;100537.69;4893176;29;20054;-88
2023/03/30 08:13:39;;;;;;;14.82;3.78;;;;;;;13.03;97.53;100543.13;4926818;29;20119;-88
2023/03/30 08:16:08;;;;;;;13.60;3.58;;;;;;;13.02;95.44;100540.63;4922325;29;20043;-88
2023/03/30 08:18:43;;;;;;;16.42;3.50;;;;;;;13.03;95.99;100548.41;4923025;29;20515;-88
2023/03/30 08:21:09;;;;;;;14.38;3.40;;;;;;;13.05;96.05;100551.75;4908781;29;20057;-88
2023/03/30 08:23:38;;;;;;;16.80;3.65;;;;;;;12.99;95.67;100552.28;4931398;29;20024;-88
2023/03/30 08:26:07;;;;;;;16.45;3.97;;;;;;;12.91;92.88;100548.66;4925541;29;20078;-87
2023/03/30 08:28:45;;;;;;;18.48;3.78;;;;;;;12.88;91.15;100539.22;4921994;29;20218;-81
2023/03/30 08:31:16;;;;;;;18.17;3.92;;;;;;;12.90;90.25;100547.81;4902661;29;20119;-86
2023/03/30 08:33:44;;;;;;;15.25;3.38;;;;;;;13.01;91.92;100549.50;4896072;29;20103;-86
2023/03/30 08:36:25;;;;;;;19.88;4.20;;;;;;;13.05;88.24;100548.25;4912217;29;20046;-86
2023/03/30 08:38:56;;;;;;;16.80;3.33;;;;;;;13.35;89.94;100531.50;4921063;29;20042;-87
2023/03/30 08:41:28;;;;;;;17.98;3.60;;;;;;;13.61;87.11;100540.56;4930721;29;20075;-87
2023/03/30 08:44:27;;;;;;;17.70;4.18;;;;;;;13.85;87.70;100531.31;4929347;29;20124;-86
2023/03/30 08:46:59;;;;;;;15.20;3.75;;;;;;;14.06;83.69;100542.56;4922080;29;20452;-86
2023/03/30 08:49:32;;;;;;;15.90;3.45;;;;;;;14.19;82.88;100532.50;4923909;29;20417;-83
2023/03/30 08:52:08;;;;;;;20.17;4.13;;;;;;;14.19;81.29;100548.38;4928628;29;20050;-81
2023/03/30 08:54:36;;;;;;;14.07;3.33;;;;;;;14.11;79.95;100546.44;4908782;29;20040;-83
2023/03/30 08:57:08;;;;;;;17.33;4.00;;;;;;;14.15;79.79;100544.34;4914781;29;20091;-80
2023/03/30 09:00:26;;;;;;;17.48;4.25;;;;;;;14.20;82.19;100539.44;4905398;29;20032;-83
2023/03/30 09:03:21;;;;;;;17.33;4.00;;;;;;;14.34;80.00;100543.44;4900513;29;20056;-85
2023/03/30 09:06:11;;;;;;;15.48;3.70;;;;;;;14.61;79.10;100538.19;4910843;29;20083;-85
2023/03/30 09:08:40;;;;;;;13.40;3.15;;;;;;;14.66;76.21;100551.00;4913029;29;20110;-87
2023/03/30 09:11:29;;;;;;;18.50;3.58;;;;;;;14.69;78.18;100545.41;4912929;29;20398;-85
2023/03/30 09:14:05;;;;;;;19.05;3.45;;;;;;;14.70;76.07;100561.13;4912385;29;20036;-86
2023/03/30 09:17:15;;;;;;;16.88;3.58;;;;;;;14.60;76.02;100556.88;4898016;29;20040;-83
2023/03/30 09:20:17;;;;;;;21.90;4.45;;;;;;;14.34;76.33;100559.31;4921747;29;20055;-84
2023/03/30 09:22:53;;;;;;;15.55;3.60;;;;;;;14.07;75.85;100586.56;4945449;29;20106;-84
2023/03/30 09:25:28;;;;;;;15.95;3.63;;;;;;;13.86;75.55;100580.59;4952706;28;20043;-85
2023/03/30 09:28:12;;;;;;;14.80;3.97;;;;;;;13.78;76.80;100576.84;4913248;29;20043;-85
2023/03/30 09:30:56;;;;;;;16.40;3.50;;;;;;;13.92;78.16;100582.66;4895442;29;20067;-81
2023/03/30 09:33:45;;;;;;;14.40;4.20;;;;;;;14.38;76.77;100587.16;4899114;29;20448;-81
2023/03/30 09:36:45;;;;;;;18.30;4.75;;;;;;;14.68;76.70;100592.25;4896161;29;20036;-82
2023/03/30 09:39:34;;;;;;;19.15;4.60;;;;;;;15.02;75.32;100589.84;4910801;29;20082;-82
2023/03/30 09:42:31;;;;;;;;;;;;;;;;;;;;;
2023/03/30 09:45:26;;;;;;;16.48;4.00;;;;;;;15.42;71.05;100596.56;4904857;29;20494;-80
2023/03/30 09:47:58;;;;;;;17.00;4.20;;;;;;;15.57;69.00;100576.47;4911884;29;20047;-80
2023/03/30 09:50:27;;;;;;;18.83;4.32;;;;;;;15.62;67.47;100584.88;4908280;29;20059;-80
2023/03/30 09:52:59;;;;;;;17.90;4.78;;;;;;;15.53;69.65;100590.19;4896526;29;20048;-80
2023/03/30 09:55:34;;;;;;;20.38;5.22;;;;;;;16.01;69.35;100603.09;4898772;29;20168;-79
2023/03/30 09:58:32;;;;;;;17.50;4.32;;;;;;;16.60;67.29;100612.91;4915795;29;20607;-80
2023/03/30 10:01:18;;;;;;;19.13;4.20;;;;;;;16.32;67.10;100602.63;4948066;29;20047;-80
2023/03/30 10:04:02;;;;;;;21.27;4.78;;;;;;;15.77;66.41;100589.63;4911202;29;20038;-80
2023/03/30 10:06:54;;;;;;;20.77;4.80;;;;;;;15.52;69.12;100604.44;4920900;29;20031;-80
2023/03/30 10:09:25;;;;;;;16.60;4.43;;;;;;;15.10;68.07;100606.81;4909003;29;20044;-80
2023/03/30 10:11:54;;;;;;;20.60;4.20;;;;;;;14.85;68.45;100609.19;4933699;29;20515;-84
2023/03/30 10:14:38;;;;;;;24.08;5.30;;;;;;;14.92;70.62;100604.97;4949314;29;20119;-80
2023/03/30 10:17:21;;;;;;;21.90;4.97;;;;;;;14.78;70.96;100620.47;4951922;28;20188;-81
2023/03/30 10:20:20;;;;;;;19.55;4.40;;;;;;;15.21;71.67;100610.09;4933072;29;20040;-80
2023/03/30 10:23:19;;;;;;;17.77;4.65;;;;;;;15.36;71.44;100618.38;4936365;29;20102;-81
2023/03/30 10:26:07;;;;;;;16.05;4.00;;;;;;;16.19;69.12;100619.78;4927439;29;20520;-81
2023/03/30 10:28:53;;;;;;;19.85;4.40;;;;;;;16.14;67.62;100611.47;4906833;29;20063;-80
2023/03/30 10:31:32;;;;;;;16.52;4.32;;;;;;;15.92;68.21;100609.28;4913039;29;20044;-81
2023/03/30 10:34:13;;;;;;;17.30;4.97;;;;;;;15.77;68.94;100610.84;4932655;29;20679;-81
2023/03/30 10:36:41;;;;;;;19.65;4.38;;;;;;;15.61;69.78;100611.53;4947593;28;20481;-81
2023/03/30 10:39:14;;;;;;;15.38;4.05;;;;;;;15.74;66.27;100627.06;4934037;29;20063;-81
2023/03/30 10:41:52;;;;;;;18.45;4.90;;;;;;;16.34;66.31;100619.22;4917888;29;20027;-81
2023/03/30 10:44:55;;;;;;;15.35;3.80;;;;;;;16.26;63.96;100610.22;4947312;28;20043;-81
2023/03/30 10:47:42;;;;;;;19.58;4.68;;;;;;;15.93;65.12;100617.09;4948508;28;20036;-81
2023/03/30 10:50:23;;;;;;;16.25;4.05;;;;;;;15.63;66.36;100613.06;4932965;29;20087;-81
2023/03/30 10:53:03;;;;;;;16.02;4.15;;;;;;;15.87;64.42;100623.03;4934321;29;20027;-81
2023/03/30 10:55:44;;;;;;;18.77;4.15;;;;;;;16.18;65.72;100614.66;4938113;29;20047;-81
2023/03/30 10:58:30;;;;;;;19.20;3.92;;;;;;;16.29;65.79;100614.38;4940360;29;20046;-81
2023/03/30 11:01:22;;;;;;;14.95;3.70;;;;;;;16.45;66.01;100611.00;4932632;29;20050;-81
2023/03/30 11:03:56;;;;;;;16.07;3.97;;;;;;;16.26;63.76;100612.88;4916991;29;20117;-81
2023/03/30 11:06:58;;;;;;;19.83;4.13;;;;;;;15.97;65.76;100618.47;4931586;29;20387;-81
2023/03/30 11:09:38;;;;;;;17.33;4.00;;;;;;;15.72;66.09;100623.72;4914988;29;20132;-81
2023/03/30 11:12:36;;;;;;;19.55;4.40;;;;;;;15.94;66.94;100615.28;4933467;29;20416;-81
2023/03/30 11:15:20;;;;;;;16.83;3.97;;;;;;;16.23;66.71;100613.19;4931824;29;20127;-81
2023/03/30 11:18:11;;;;;;;20.67;4.40;;;;;;;16.51;64.87;100605.06;4936241;29;20035;-81
2023/03/30 11:21:02;;;;;;;17.17;4.28;;;;;;;16.55;65.02;100606.41;4940700;29;20061;-81
2023/03/30 11:24:26;;;;;;;14.98;3.65;;;;;;;16.42;64.91;100598.88;4933625;29;20429;-81
2023/03/30 11:27:17;;;;;;;16.25;4.05;;;;;;;16.03;65.19;100614.38;4933048;29;20389;-81
2023/03/30 11:29:48;;;;;;;12.45;3.55;;;;;;;15.79;65.78;100614.16;4932469;29;20023;-81
2023/03/30 11:32:33;;;;;;;15.75;4.03;;;;;;;15.71;66.15;100622.06;4931746;29;20572;-81
2023/03/30 11:35:20;;;;;;;17.00;3.97;;;;;;;15.55;66.27;100612.09;4932060;29;20036;-81
2023/03/30 11:37:55;;;;;;;16.17;3.90;;;;;;;15.33;66.91;100613.38;4930780;29;20098;-81
2023/03/30 11:40:36;;;;;;;16.90;4.10;;;;;;;15.23;68.98;100623.22;4921019;29;20086;-81
2023/03/30 11:43:04;;;;;;;14.15;3.90;;;;;;;15.09;67.60;100610.44;4932668;29;20032;-81
2023/03/30 11:45:49;;;;;;;14.85;3.42;;;;;;;15.09;68.89;100626.34;4941947;28;20032;-82
2023/03/30 11:48:46;;;;;;;16.52;4.20;;;;;;;15.15;69.02;100620.44;4946623;28;20501;-81
2023/03/30 11:51:39;;;;;;;12.77;4.03;;;;;;;15.17;69.44;100626.44;4937500;29;20062;-82
2023/03/30 11:54:32;;;;;;;12.35;3.63;;;;;;;15.22;70.35;100624.19;4914893;29;20036;-82
2023/03/30 11:57:46;;;;;;;14.13;3.55;;;;;;;15.57;69.77;100618.91;4950996;28;20396;-82
2023/03/30 12:00:17;;;;;;;;;;;;;;;15.74;69.69;100627.06;4938300;28;20047;-82
2023/03/30 12:03:16;;;;;;;16.38;4.05;;;;;;;15.64;68.36;100643.91;4929026;29;19911;-82
2023/03/30 12:06:11;;;;;;;14.13;3.13;;;;;;;15.96;67.09;100632.72;4931577;29;20102;-82
2023/03/30 12:09:17;;;;;;;9.85;3.13;;;;;;;16.18;65.73;100636.72;4915095;29;20484;-82
2023/03/30 12:11:49;;;;;;;15.68;3.67;;;;;;;16.07;64.13;100634.31;4942570;28;20067;-83
2023/03/30 12:14:32;;;;;;;13.10;3.28;;;;;;;15.77;64.07;100632.06;4930539;29;20032;-85
2023/03/30 12:17:33;;;;;;;12.00;2.90;;;;;;;15.63;64.69;100638.75;4911221;29;20062;-84
2023/03/30 12:20:08;;;;;;;11.85;2.97;;;;;;;15.74;64.72;100642.97;4935103;29;20052;-81
2023/03/30 12:23:13;;;;;;;12.38;2.97;;;;;;;15.69;63.05;100645.25;4926894;29;20071;-85
2023/03/30 12:26:12;;;;;;;12.80;3.38;;;;;;;15.72;63.72;100650.25;4913419;29;20048;-83